Time;durP1;ratioP1;P1;durP2;ratioP2;P2;SDS_P1;SDS_P2;PMS_P1;PMS_P2;Temp;Humidity;BMP_temperature;BMP_pressure;BME280_temperature;BME280_humidity;BME280_pressure;Samples;Min_cycle;Max_cycle;Signal;HPM_P1;HPM_P2
2022/01/02 00:00:13;;;;;;;8.63;4.80;;;;;;;;;;4989651;28;20053;-74
2022/01/02 00:02:40;;;;;;;8.20;4.53;;;;;;;;;;4987567;28;20379;-73
2022/01/02 00:05:11;;;;;;;10.35;4.40;;;;;;;;;;4971071;28;20376;-74
2022/01/02 00:07:43;;;;;;;7.15;4.05;;;;;;;;;;4989412;28;20396;-75
2022/01/02 00:10:09;;;;;;;5.50;3.22;;;;;;;;;;4989455;28;20529;-74
2022/01/02 00:12:35;;;;;;;13.18;4.95;;;;;;;;;;4989202;28;20514;-73
2022/01/02 00:15:04;;;;;;;8.48;4.80;;;;;;;;;;4988911;28;20459;-73
2022/01/02 00:17:30;;;;;;;6.31;4.04;;;;;;;;;;4773375;28;5001528;-74
2022/01/02 00:19:57;;;;;;;6.93;3.78;;;;;;;;;;4982421;28;20461;-74
2022/01/02 00:22:31;;;;;;;7.75;4.00;;;;;;;;;;4987825;28;20367;-75
2022/01/02 00:24:57;;;;;;;8.60;3.97;;;;;;;;;;4971766;28;20337;-73
2022/01/02 00:27:22;;;;;;;7.65;3.78;;;;;;;;;;4971074;28;20364;-74
2022/01/02 00:29:49;;;;;;;7.57;4.25;;;;;;;;;;4992781;28;20379;-74
2022/01/02 00:32:15;;;;;;;10.15;4.05;;;;;;;;;;4992793;28;20459;-74
2022/01/02 00:34:40;;;;;;;9.43;4.32;;;;;;;;;;4991333;28;20386;-74
2022/01/02 00:37:06;;;;;;;6.43;3.60;;;;;;;;;;4975136;28;20087;-75
2022/01/02 00:39:32;;;;;;;10.38;4.32;;;;;;;;;;4992398;28;20424;-75
2022/01/02 00:42:07;;;;;;;8.60;3.58;;;;;;;;;;4991590;28;20104;-74
2022/01/02 00:44:32;;;;;;;7.72;3.80;;;;;;;;;;4992435;28;20539;-75
2022/01/02 00:47:19;;;;;;;6.90;4.10;;;;;;;;;;4993161;28;20444;-75
2022/01/02 00:49:53;;;;;;;7.00;4.32;;;;;;;;;;4992669;28;20526;-74
2022/01/02 00:52:19;;;;;;;7.88;4.30;;;;;;;;;;4991500;28;20402;-74
2022/01/02 00:54:45;;;;;;;8.13;4.18;;;;;;;;;;4974425;28;20155;-74
2022/01/02 00:57:17;;;;;;;11.30;4.88;;;;;;;;;;4974726;28;20444;-75
2022/01/02 00:59:48;;;;;;;7.70;4.30;;;;;;;;;;4957661;28;20463;-75
2022/01/02 01:02:18;;;;;;;12.77;4.38;;;;;;;;;;4985129;28;20363;-74
2022/01/02 01:04:46;;;;;;;6.43;3.47;;;;;;;;;;4973434;28;20100;-74
2022/01/02 01:07:13;;;;;;;10.85;4.18;;;;;;;;;;4955391;28;20371;-74
2022/01/02 01:09:39;;;;;;;9.85;4.80;;;;;;;;;;4973039;28;20411;-74
2022/01/02 01:12:06;;;;;;;9.50;4.70;;;;;;;;;;4972380;28;20333;-74
2022/01/02 01:14:31;;;;;;;8.25;4.43;;;;;;;;;;4972375;28;20336;-74
2022/01/02 01:16:57;;;;;;;8.95;4.72;;;;;;;;;;4972895;28;20324;-74
2022/01/02 01:19:23;;;;;;;8.25;4.55;;;;;;;;;;4973146;28;20527;-74
2022/01/02 01:21:52;;;;;;;9.50;4.07;;;;;;;;;;4955009;28;20428;-74
2022/01/02 01:24:18;;;;;;;7.93;4.55;;;;;;;;;;4972249;28;20348;-74
2022/01/02 01:26:46;;;;;;;9.95;4.93;;;;;;;;;;4954641;28;20338;-74
2022/01/02 01:29:12;;;;;;;9.48;5.20;;;;;;;;;;4972001;28;20429;-74
2022/01/02 01:31:37;;;;;;;9.43;4.55;;;;;;;;;;4954148;28;20456;-73
2022/01/02 01:34:03;;;;;;;7.15;3.70;;;;;;;;;;4954576;28;20455;-74
2022/01/02 01:36:28;;;;;;;9.93;4.47;;;;;;;;;;4971951;28;20340;-75
2022/01/02 01:38:53;;;;;;;9.02;4.45;;;;;;;;;;4972168;28;20455;-74
2022/01/02 01:41:30;;;;;;;7.88;4.97;;;;;;;;;;4972855;28;20108;-74
2022/01/02 01:46:54;;;;;;;8.00;4.40;;;;;;;;;;4901231;28;20474;-76
2022/01/02 01:49:31;;;;;;;10.00;4.95;;;;;;;;;;4973672;28;20411;-74
2022/01/02 01:51:57;;;;;;;11.55;4.88;;;;;;;;;;4954979;28;20334;-73
2022/01/02 01:54:22;;;;;;;8.38;4.10;;;;;;;;;;4971433;28;20057;-74
2022/01/02 01:56:51;;;;;;;8.45;4.68;;;;;;;;;;4954487;28;20417;-74
2022/01/02 01:59:18;;;;;;;10.48;4.60;;;;;;;;;;4954486;28;20463;-73
2022/01/02 02:01:43;;;;;;;8.48;4.95;;;;;;;;;;4972457;28;20416;-74
2022/01/02 02:04:08;;;;;;;9.20;5.07;;;;;;;;;;4971986;28;20459;-74
2022/01/02 02:06:35;;;;;;;11.30;5.18;;;;;;;;;;4954646;28;20309;-74
2022/01/02 02:09:02;;;;;;;9.75;4.15;;;;;;;;;;4953468;28;20334;-74
2022/01/02 02:11:28;;;;;;;6.03;3.60;;;;;;;;;;4953793;28;20368;-74
2022/01/02 02:13:55;;;;;;;8.65;3.85;;;;;;;;;;4953515;28;20387;-74
2022/01/02 02:16:20;;;;;;;6.20;4.15;;;;;;;;;;4954406;28;20352;-74
2022/01/02 02:18:45;;;;;;;9.52;4.97;;;;;;;;;;4953380;28;20364;-74
2022/01/02 02:21:11;;;;;;;8.95;4.40;;;;;;;;;;4971495;28;20370;-74
2022/01/02 02:23:36;;;;;;;12.18;5.47;;;;;;;;;;4971355;28;20374;-74
2022/01/02 02:26:01;;;;;;;11.80;5.30;;;;;;;;;;4971350;28;20374;-74
2022/01/02 02:28:27;;;;;;;9.55;5.18;;;;;;;;;;4971329;28;20372;-74
2022/01/02 02:30:53;;;;;;;13.27;4.47;;;;;;;;;;4954299;28;20099;-74
2022/01/02 02:33:19;;;;;;;10.65;4.82;;;;;;;;;;4953820;28;20305;-73
2022/01/02 02:35:46;;;;;;;11.73;5.70;;;;;;;;;;4970893;28;20337;-75
2022/01/02 02:38:14;;;;;;;10.00;4.75;;;;;;;;;;4970854;28;20356;-74
2022/01/02 02:40:40;;;;;;;11.10;5.50;;;;;;;;;;4971719;28;20455;-74
2022/01/02 02:43:23;;;;;;;10.48;5.18;;;;;;;;;;4952538;28;20332;-74
2022/01/02 02:51:26;;;;;;;10.85;5.75;;;;;;;;;;4956009;28;20478;-73
2022/01/02 02:53:52;;;;;;;11.73;5.22;;;;;;;;;;4970149;28;20460;-74
2022/01/02 02:56:28;;;;;;;14.73;6.05;;;;;;;;;;4970122;28;20350;-74
2022/01/02 02:58:56;;;;;;;13.27;5.75;;;;;;;;;;4954015;28;20446;-74
2022/01/02 03:01:23;;;;;;;9.82;5.07;;;;;;;;;;4970856;28;20408;-74
2022/01/02 03:03:49;;;;;;;11.52;5.68;;;;;;;;;;4970128;28;20496;-74
2022/01/02 03:06:15;;;;;;;11.63;5.93;;;;;;;;;;4952996;28;20431;-74
2022/01/02 03:08:41;;;;;;;8.50;4.90;;;;;;;;;;4952710;28;20436;-74
2022/01/02 03:11:09;;;;;;;13.63;5.45;;;;;;;;;;4971158;28;20322;-73
2022/01/02 03:13:35;;;;;;;9.20;5.32;;;;;;;;;;4953374;28;20267;-74
2022/01/02 03:16:00;;;;;;;11.73;6.03;;;;;;;;;;4970182;28;20501;-74
2022/01/02 03:18:26;;;;;;;13.77;5.82;;;;;;;;;;4970693;28;20405;-74
2022/01/02 03:20:51;;;;;;;10.90;5.80;;;;;;;;;;4970576;28;20447;-74
2022/01/02 03:23:16;;;;;;;13.35;5.80;;;;;;;;;;4968462;28;20447;-74
2022/01/02 03:25:42;;;;;;;10.90;6.38;;;;;;;;;;4970293;28;20500;-74
2022/01/02 03:28:07;;;;;;;10.82;5.57;;;;;;;;;;4968389;28;20456;-74
2022/01/02 03:30:33;;;;;;;10.10;5.38;;;;;;;;;;4971049;28;20414;-74
2022/01/02 03:32:58;;;;;;;9.93;5.40;;;;;;;;;;4969875;28;20029;-74
2022/01/02 03:35:23;;;;;;;13.63;6.55;;;;;;;;;;4970016;28;20044;-74
2022/01/02 03:37:50;;;;;;;12.32;5.65;;;;;;;;;;4969536;28;20034;-74
2022/01/02 03:40:16;;;;;;;9.68;4.72;;;;;;;;;;4969575;28;20429;-74
2022/01/02 03:42:41;;;;;;;9.90;5.35;;;;;;;;;;4969772;28;20428;-74
2022/01/02 03:45:07;;;;;;;13.25;6.22;;;;;;;;;;4970260;28;20490;-75
2022/01/02 03:47:32;;;;;;;12.15;5.75;;;;;;;;;;4970367;28;20381;-74
2022/01/02 03:49:57;;;;;;;14.20;6.65;;;;;;;;;;4969662;28;20322;-74
2022/01/02 03:52:24;;;;;;;12.80;6.03;;;;;;;;;;4969316;28;20056;-74
2022/01/02 03:54:50;;;;;;;14.60;6.00;;;;;;;;;;4969037;28;20357;-74
2022/01/02 03:57:15;;;;;;;11.98;6.22;;;;;;;;;;4952034;28;20440;-74
2022/01/02 03:59:41;;;;;;;13.05;5.80;;;;;;;;;;4969226;28;20037;-74
2022/01/02 04:02:06;;;;;;;15.02;6.53;;;;;;;;;;4969595;28;20319;-74
2022/01/02 04:04:31;;;;;;;14.18;7.03;;;;;;;;;;4951834;28;20468;-74
2022/01/02 04:06:56;;;;;;;14.10;6.63;;;;;;;;;;4969321;28;20509;-74
2022/01/02 04:09:22;;;;;;;12.70;6.40;;;;;;;;;;4969538;28;20433;-74
2022/01/02 04:11:47;;;;;;;14.15;6.70;;;;;;;;;;4969267;28;20507;-74
2022/01/02 04:14:12;;;;;;;13.27;6.65;;;;;;;;;;4969444;28;20528;-74
2022/01/02 04:16:38;;;;;;;13.93;7.30;;;;;;;;;;4969300;28;20033;-74
2022/01/02 04:19:03;;;;;;;13.75;7.05;;;;;;;;;;4970052;28;20037;-74
2022/01/02 04:21:29;;;;;;;13.68;6.32;;;;;;;;;;4969156;28;20455;-74
2022/01/02 04:23:54;;;;;;;11.20;6.45;;;;;;;;;;4951380;28;20449;-74
2022/01/02 04:26:19;;;;;;;11.65;6.20;;;;;;;;;;4968934;28;20441;-74
2022/01/02 04:28:45;;;;;;;12.88;6.22;;;;;;;;;;4970575;28;20414;-73
2022/01/02 04:31:11;;;;;;;16.42;7.13;;;;;;;;;;4951676;28;20034;-74
2022/01/02 04:33:36;;;;;;;12.82;6.78;;;;;;;;;;4952029;28;20577;-74
2022/01/02 04:36:02;;;;;;;11.80;6.20;;;;;;;;;;4953225;28;20172;-74
2022/01/02 04:38:28;;;;;;;12.20;6.38;;;;;;;;;;4951294;28;20029;-74
2022/01/02 04:40:53;;;;;;;15.88;7.47;;;;;;;;;;4969172;28;20440;-74
2022/01/02 04:43:18;;;;;;;14.40;6.70;;;;;;;;;;4951457;28;20444;-73
2022/01/02 04:45:44;;;;;;;14.38;6.28;;;;;;;;;;4969145;28;20367;-74
2022/01/02 04:48:09;;;;;;;13.35;6.10;;;;;;;;;;4969010;28;20407;-74
2022/01/02 04:50:34;;;;;;;14.77;7.00;;;;;;;;;;4951608;28;20478;-73
2022/01/02 04:52:59;;;;;;;13.02;6.57;;;;;;;;;;4970358;28;20413;-74
2022/01/02 04:55:25;;;;;;;17.67;6.95;;;;;;;;;;4951033;28;20461;-74
2022/01/02 04:57:50;;;;;;;15.48;6.95;;;;;;;;;;4951452;28;20396;-74
2022/01/02 05:00:15;;;;;;;12.02;6.50;;;;;;;;;;4969161;28;20387;-74
2022/01/02 05:02:41;;;;;;;13.93;6.43;;;;;;;;;;4969084;28;20358;-74
2022/01/02 05:05:06;;;;;;;12.57;5.93;;;;;;;;;;4970291;28;20455;-74
2022/01/02 05:07:32;;;;;;;16.00;7.70;;;;;;;;;;4969173;28;20428;-74
2022/01/02 05:09:57;;;;;;;19.15;7.43;;;;;;;;;;4967357;28;20417;-74
2022/01/02 05:12:22;;;;;;;14.35;6.95;;;;;;;;;;4968413;28;20052;-74
2022/01/02 05:14:48;;;;;;;11.60;6.20;;;;;;;;;;4970189;28;20432;-74
2022/01/02 05:17:13;;;;;;;15.40;6.85;;;;;;;;;;4972497;28;20420;-74
2022/01/02 05:19:38;;;;;;;14.35;6.25;;;;;;;;;;4973576;28;20396;-74
2022/01/02 05:22:04;;;;;;;14.82;7.03;;;;;;;;;;4972412;28;20412;-74
2022/01/02 05:24:29;;;;;;;14.68;7.78;;;;;;;;;;4954488;28;20528;-73
2022/01/02 05:26:55;;;;;;;16.38;7.63;;;;;;;;;;4954650;28;20377;-74
2022/01/02 05:29:21;;;;;;;13.27;6.45;;;;;;;;;;4955468;28;20087;-75
2022/01/02 05:31:47;;;;;;;11.35;5.85;;;;;;;;;;4972497;28;20332;-74
2022/01/02 05:34:12;;;;;;;14.95;7.55;;;;;;;;;;4972623;28;20302;-74
2022/01/02 05:36:38;;;;;;;19.55;7.35;;;;;;;;;;4972214;28;20459;-74
2022/01/02 05:39:03;;;;;;;15.68;7.32;;;;;;;;;;4972112;28;20361;-73
2022/01/02 05:41:30;;;;;;;18.67;7.15;;;;;;;;;;4972565;28;20449;-73
2022/01/02 05:43:56;;;;;;;13.82;7.28;;;;;;;;;;4971624;28;20459;-74
2022/01/02 05:46:21;;;;;;;12.68;7.18;;;;;;;;;;4972371;28;20428;-74
2022/01/02 05:48:47;;;;;;;12.15;6.32;;;;;;;;;;4954192;28;20342;-73
2022/01/02 05:51:12;;;;;;;12.90;6.82;;;;;;;;;;4954349;28;20084;-74
2022/01/02 05:53:37;;;;;;;12.48;6.88;;;;;;;;;;4971330;28;20029;-74
2022/01/02 05:56:03;;;;;;;12.15;6.18;;;;;;;;;;4971984;28;20530;-73
2022/01/02 05:58:28;;;;;;;12.68;6.43;;;;;;;;;;4953595;28;20348;-75
2022/01/02 06:00:53;;;;;;;14.18;6.97;;;;;;;;;;4971694;28;20487;-74
2022/01/02 06:03:19;;;;;;;14.60;6.55;;;;;;;;;;4971505;28;20413;-74
2022/01/02 06:05:45;;;;;;;15.13;7.07;;;;;;;;;;4953915;28;20465;-75
2022/01/02 06:08:11;;;;;;;13.82;7.03;;;;;;;;;;4953942;28;20364;-74
2022/01/02 06:10:36;;;;;;;14.05;6.45;;;;;;;;;;4972049;28;20409;-73
2022/01/02 06:13:01;;;;;;;16.27;7.63;;;;;;;;;;4971328;28;20379;-74
2022/01/02 06:15:27;;;;;;;10.25;6.43;;;;;;;;;;4971600;28;20302;-73
2022/01/02 06:17:52;;;;;;;11.13;5.43;;;;;;;;;;4953514;28;20148;-74
2022/01/02 06:20:17;;;;;;;14.70;6.40;;;;;;;;;;4971621;28;20328;-75
2022/01/02 06:22:43;;;;;;;14.65;5.88;;;;;;;;;;4971824;28;20409;-74
2022/01/02 06:25:08;;;;;;;13.48;6.53;;;;;;;;;;4969580;28;20483;-74
2022/01/02 06:27:35;;;;;;;13.07;6.03;;;;;;;;;;4970332;28;20579;-74
2022/01/02 06:30:01;;;;;;;13.82;6.97;;;;;;;;;;4971147;28;20096;-74
2022/01/02 06:32:26;;;;;;;15.55;7.20;;;;;;;;;;4972157;28;20044;-74
2022/01/02 06:34:51;;;;;;;13.43;6.90;;;;;;;;;;4970917;28;20310;-73
2022/01/02 06:37:17;;;;;;;12.82;6.05;;;;;;;;;;4971452;28;20486;-74
2022/01/02 06:39:42;;;;;;;13.45;6.55;;;;;;;;;;4953459;28;20433;-73
2022/01/02 06:42:07;;;;;;;13.85;6.28;;;;;;;;;;4952899;28;20467;-73
2022/01/02 06:44:33;;;;;;;15.00;6.38;;;;;;;;;;4970775;28;20375;-75
2022/01/02 06:46:58;;;;;;;13.77;6.70;;;;;;;;;;4971123;28;20108;-74
2022/01/02 06:49:23;;;;;;;14.00;6.50;;;;;;;;;;4972406;28;20313;-74
2022/01/02 06:51:49;;;;;;;11.60;5.68;;;;;;;;;;4952831;28;20341;-74
2022/01/02 06:54:14;;;;;;;11.35;6.07;;;;;;;;;;4970447;28;20368;-74
2022/01/02 06:56:39;;;;;;;10.10;5.95;;;;;;;;;;4971618;28;20420;-73
2022/01/02 06:59:05;;;;;;;13.00;5.75;;;;;;;;;;4970319;28;20396;-73
2022/01/02 07:01:30;;;;;;;12.70;5.80;;;;;;;;;;4970487;28;20364;-74
2022/01/02 07:03:55;;;;;;;12.18;6.18;;;;;;;;;;4970310;28;20095;-73
2022/01/02 07:06:21;;;;;;;11.68;5.50;;;;;;;;;;4952595;28;20052;-74
2022/01/02 07:08:46;;;;;;;11.35;5.80;;;;;;;;;;4952571;28;20363;-74
2022/01/02 07:11:11;;;;;;;11.98;5.75;;;;;;;;;;4970792;28;20464;-73
2022/01/02 07:13:38;;;;;;;11.02;6.03;;;;;;;;;;4971415;28;20031;-74
2022/01/02 07:16:04;;;;;;;10.05;4.85;;;;;;;;;;4971218;28;20122;-73
2022/01/02 07:18:29;;;;;;;10.13;5.35;;;;;;;;;;4969903;28;20100;-74
2022/01/02 07:20:54;;;;;;;11.65;5.88;;;;;;;;;;4970153;28;20532;-73
2022/01/02 07:23:19;;;;;;;12.95;5.88;;;;;;;;;;4969917;28;20056;-73
2022/01/02 07:25:45;;;;;;;10.68;5.68;;;;;;;;;;4970307;28;20502;-73
2022/01/02 07:28:10;;;;;;;11.85;5.88;;;;;;;;;;4969894;28;20464;-73
2022/01/02 07:30:35;;;;;;;12.93;5.95;;;;;;;;;;4952345;28;20515;-73
2022/01/02 07:33:02;;;;;;;11.45;5.25;;;;;;;;;;4969832;28;20053;-74
2022/01/02 07:35:29;;;;;;;11.70;5.93;;;;;;;;;;4969979;28;20462;-73
2022/01/02 07:37:54;;;;;;;11.73;6.22;;;;;;;;;;4969585;28;20459;-74
2022/01/02 07:40:19;;;;;;;8.95;5.03;;;;;;;;;;4952369;28;20457;-74
2022/01/02 07:42:45;;;;;;;10.55;5.50;;;;;;;;;;4970105;28;20333;-74
2022/01/02 07:45:12;;;;;;;11.45;5.78;;;;;;;;;;4971466;28;20440;-73
2022/01/02 07:47:40;;;;;;;11.23;5.75;;;;;;;;;;4969906;28;20321;-73
2022/01/02 07:50:06;;;;;;;9.82;5.75;;;;;;;;;;4970587;28;20419;-73
2022/01/02 07:52:31;;;;;;;12.18;6.05;;;;;;;;;;4952805;28;20029;-73
2022/01/02 07:54:56;;;;;;;11.30;5.18;;;;;;;;;;4969450;28;20365;-74
2022/01/02 07:57:22;;;;;;;12.02;5.65;;;;;;;;;;4952571;28;20471;-73
2022/01/02 07:59:47;;;;;;;7.70;5.03;;;;;;;;;;4969762;28;20437;-73
2022/01/02 08:02:12;;;;;;;11.18;5.65;;;;;;;;;;4969590;28;20106;-73
2022/01/02 08:04:38;;;;;;;12.43;5.50;;;;;;;;;;4952646;28;20069;-74
2022/01/02 08:07:03;;;;;;;10.15;4.85;;;;;;;;;;4951806;28;20387;-73
2022/01/02 08:09:28;;;;;;;10.30;4.90;;;;;;;;;;4951874;28;20444;-73
2022/01/02 08:11:54;;;;;;;8.18;5.30;;;;;;;;;;4969550;28;20466;-74
2022/01/02 08:14:21;;;;;;;9.15;5.35;;;;;;;;;;4969364;28;20484;-74
2022/01/02 08:16:46;;;;;;;10.68;5.43;;;;;;;;;;4969286;28;20409;-74
2022/01/02 08:19:11;;;;;;;10.43;5.68;;;;;;;;;;4969321;28;20455;-74
2022/01/02 08:21:37;;;;;;;9.75;5.85;;;;;;;;;;4970245;28;20501;-74
2022/01/02 08:24:02;;;;;;;9.52;5.13;;;;;;;;;;4952576;28;20519;-73
2022/01/02 08:26:28;;;;;;;8.15;4.05;;;;;;;;;;4968838;28;20379;-75
2022/01/02 08:28:53;;;;;;;9.50;5.22;;;;;;;;;;4969309;28;20452;-73
2022/01/02 08:31:18;;;;;;;11.30;5.30;;;;;;;;;;4969220;28;20317;-73
2022/01/02 08:33:44;;;;;;;9.40;4.60;;;;;;;;;;4952177;28;20463;-74
2022/01/02 08:36:09;;;;;;;9.20;4.95;;;;;;;;;;4969363;28;20491;-73
2022/01/02 08:38:35;;;;;;;9.63;5.35;;;;;;;;;;4969461;28;20416;-74
2022/01/02 08:41:00;;;;;;;8.18;4.68;;;;;;;;;;4951991;28;20441;-74
2022/01/02 08:43:25;;;;;;;9.15;5.05;;;;;;;;;;4969494;28;20060;-74
2022/01/02 08:45:51;;;;;;;8.82;4.90;;;;;;;;;;4970130;28;20341;-74
2022/01/02 08:48:16;;;;;;;11.57;4.95;;;;;;;;;;4969278;28;20344;-74
2022/01/02 08:50:41;;;;;;;10.60;5.60;;;;;;;;;;4972597;28;20328;-74
2022/01/02 08:53:06;;;;;;;11.32;5.93;;;;;;;;;;4955768;28;20116;-75
2022/01/02 08:55:33;;;;;;;13.65;5.90;;;;;;;;;;4972690;28;20414;-74
2022/01/02 08:57:59;;;;;;;12.73;5.53;;;;;;;;;;4973670;28;20022;-74
2022/01/02 09:00:24;;;;;;;8.77;4.53;;;;;;;;;;4972961;28;20052;-74
2022/01/02 09:02:49;;;;;;;10.05;5.30;;;;;;;;;;4972660;28;20025;-73
2022/01/02 09:05:15;;;;;;;9.20;5.03;;;;;;;;;;4973772;28;20371;-73
2022/01/02 09:07:40;;;;;;;9.23;5.20;;;;;;;;;;4973570;28;20220;-74
2022/01/02 09:10:06;;;;;;;10.85;4.45;;;;;;;;;;4972874;28;20333;-74
2022/01/02 09:12:32;;;;;;;11.55;5.10;;;;;;;;;;4970899;28;20419;-73
2022/01/02 09:14:57;;;;;;;7.82;4.15;;;;;;;;;;4954639;28;20400;-74
2022/01/02 09:17:22;;;;;;;7.00;4.05;;;;;;;;;;4955032;28;20460;-74
2022/01/02 09:19:49;;;;;;;8.60;4.53;;;;;;;;;;4972261;28;20108;-74
2022/01/02 09:22:14;;;;;;;11.20;5.00;;;;;;;;;;4954810;28;20431;-73
2022/01/02 09:24:39;;;;;;;11.00;4.78;;;;;;;;;;4972178;28;20324;-74
2022/01/02 09:27:05;;;;;;;8.35;5.03;;;;;;;;;;4970801;28;20502;-73
2022/01/02 09:29:31;;;;;;;13.43;4.97;;;;;;;;;;4954616;28;20380;-74
2022/01/02 09:31:56;;;;;;;8.48;4.50;;;;;;;;;;4972384;28;20049;-74
2022/01/02 09:34:22;;;;;;;11.00;5.60;;;;;;;;;;4971782;28;20420;-75
2022/01/02 09:36:47;;;;;;;9.65;5.18;;;;;;;;;;4954476;28;20833;-74
2022/01/02 09:39:13;;;;;;;9.95;5.95;;;;;;;;;;4971903;28;20432;-74
2022/01/02 09:41:38;;;;;;;11.35;5.18;;;;;;;;;;4954564;28;20096;-74
2022/01/02 09:44:05;;;;;;;9.77;5.32;;;;;;;;;;4954115;28;20498;-73
2022/01/02 09:46:31;;;;;;;10.52;5.38;;;;;;;;;;4970627;28;20459;-74
2022/01/02 09:48:56;;;;;;;8.77;5.07;;;;;;;;;;4972128;28;20119;-74
2022/01/02 09:51:26;;;;;;;8.55;5.38;;;;;;;;;;4954083;28;20452;-74
2022/01/02 09:53:53;;;;;;;6.85;4.00;;;;;;;;;;4971769;28;20103;-74
2022/01/02 09:56:18;;;;;;;10.07;5.82;;;;;;;;;;4971977;28;20372;-74
2022/01/02 09:58:44;;;;;;;8.73;4.40;;;;;;;;;;4971712;28;20025;-74
2022/01/02 10:01:36;;;;;;;9.75;5.28;;;;;;;;;;4970275;28;20368;-74
2022/01/02 10:04:01;;;;;;;8.45;5.05;;;;;;;;;;4950175;28;20037;-74
2022/01/02 10:06:46;;;;;;;11.65;5.47;;;;;;;;;;4954243;28;20044;-74
2022/01/02 10:09:30;;;;;;;8.45;5.18;;;;;;;;;;4971854;28;20443;-74
2022/01/02 10:12:29;;;;;;;11.73;5.88;;;;;;;;;;4972798;28;20368;-74
2022/01/02 10:15:06;;;;;;;11.45;5.75;;;;;;;;;;4953545;28;20453;-74
2022/01/02 10:17:50;;;;;;;8.35;4.50;;;;;;;;;;4971536;28;20487;-74
2022/01/02 10:20:15;;;;;;;9.60;5.10;;;;;;;;;;4971710;28;20045;-74
2022/01/02 10:23:07;;;;;;;10.48;5.38;;;;;;;;;;4971354;28;20526;-74
2022/01/02 10:25:37;;;;;;;11.55;5.93;;;;;;;;;;4972020;28;20022;-74
2022/01/02 10:28:25;;;;;;;7.80;4.38;;;;;;;;;;4971215;28;20436;-74
2022/01/02 10:30:52;;;;;;;7.88;5.00;;;;;;;;;;4971715;28;20413;-73
2022/01/02 10:33:18;;;;;;;9.50;5.72;;;;;;;;;;4953014;28;20478;-74
2022/01/02 10:35:43;;;;;;;10.18;5.93;;;;;;;;;;4954041;28;20424;-75
2022/01/02 10:38:16;;;;;;;11.05;5.32;;;;;;;;;;4953401;28;20336;-74
2022/01/02 10:40:42;;;;;;;14.15;6.53;;;;;;;;;;4970972;28;20298;-74
2022/01/02 10:43:08;;;;;;;12.30;5.80;;;;;;;;;;4953161;28;20475;-74
2022/01/02 10:45:39;;;;;;;10.27;5.32;;;;;;;;;;4953721;28;20555;-74
2022/01/02 10:48:08;;;;;;;8.63;4.93;;;;;;;;;;4970563;28;20452;-74
2022/01/02 10:50:33;;;;;;;9.88;5.32;;;;;;;;;;4970928;28;20449;-74
2022/01/02 10:53:11;;;;;;;11.90;5.20;;;;;;;;;;4970690;28;20388;-74
2022/01/02 10:55:36;;;;;;;8.25;5.10;;;;;;;;;;4952513;28;20372;-74
2022/01/02 10:58:07;;;;;;;9.32;5.15;;;;;;;;;;4970545;28;20033;-74
2022/01/02 11:00:32;;;;;;;11.10;5.40;;;;;;;;;;4970914;28;20388;-74
2022/01/02 11:02:58;;;;;;;9.23;5.60;;;;;;;;;;4952533;28;20044;-74
2022/01/02 11:05:28;;;;;;;8.45;4.90;;;;;;;;;;4952616;28;20426;-74
2022/01/02 11:07:58;;;;;;;10.57;5.47;;;;;;;;;;4970393;28;20429;-73
2022/01/02 11:10:24;;;;;;;11.32;5.10;;;;;;;;;;4953017;28;20407;-74
2022/01/02 11:12:50;;;;;;;8.00;4.72;;;;;;;;;;4952108;28;20459;-74
2022/01/02 11:15:18;;;;;;;10.77;5.57;;;;;;;;;;4970410;28;20437;-74
2022/01/02 11:17:44;;;;;;;11.98;6.32;;;;;;;;;;4952476;28;20421;-74
2022/01/02 11:20:14;;;;;;;8.60;5.15;;;;;;;;;;4970517;28;20424;-74
2022/01/02 11:22:58;;;;;;;10.45;5.82;;;;;;;;;;4952474;28;20348;-74
2022/01/02 11:25:42;;;;;;;10.77;5.70;;;;;;;;;;4970487;28;20328;-74
2022/01/02 11:28:30;;;;;;;10.45;5.15;;;;;;;;;;4970282;28;20433;-73
2022/01/02 11:30:56;;;;;;;9.88;5.00;;;;;;;;;;4953097;28;20356;-74
2022/01/02 11:33:33;;;;;;;10.20;5.88;;;;;;;;;;4952646;28;20354;-74
2022/01/02 11:36:00;;;;;;;8.63;4.72;;;;;;;;;;4951836;28;20363;-74
2022/01/02 11:38:40;;;;;;;10.20;5.07;;;;;;;;;;4952767;28;20407;-74
2022/01/02 11:41:06;;;;;;;11.85;6.07;;;;;;;;;;4970975;28;20513;-74
2022/01/02 11:43:38;;;;;;;10.73;5.68;;;;;;;;;;4971020;28;20425;-73
2022/01/02 11:46:23;;;;;;;11.93;5.78;;;;;;;;;;4970067;28;20029;-74
2022/01/02 11:49:13;;;;;;;11.65;5.80;;;;;;;;;;4952035;28;20364;-74
2022/01/02 11:51:50;;;;;;;9.48;5.40;;;;;;;;;;4969566;28;20072;-74
2022/01/02 11:54:41;;;;;;;13.25;5.68;;;;;;;;;;4969559;28;20438;-74
2022/01/02 11:57:15;;;;;;;9.30;5.25;;;;;;;;;;4952563;28;20298;-74
2022/01/02 11:59:43;;;;;;;11.27;5.22;;;;;;;;;;4969537;28;20416;-74
2022/01/02 12:02:17;;;;;;;9.98;5.40;;;;;;;;;;4969434;28;20433;-74
2022/01/02 12:07:35;;;;;;;10.30;5.70;;;;;;;;;;4969566;28;20357;-74
2022/01/02 12:10:16;;;;;;;9.77;5.43;;;;;;;;;;4970586;28;20429;-73
2022/01/02 12:12:59;;;;;;;11.48;6.07;;;;;;;;;;4951884;28;20325;-74
2022/01/02 12:15:44;;;;;;;8.60;5.00;;;;;;;;;;4969372;28;20417;-73
2022/01/02 12:18:26;;;;;;;13.13;5.30;;;;;;;;;;4967550;28;20389;-74
2022/01/02 12:20:52;;;;;;;11.18;5.25;;;;;;;;;;4969284;28;20433;-74
2022/01/02 12:23:36;;;;;;;10.00;5.38;;;;;;;;;;4968765;28;20341;-74
2022/01/02 12:26:01;;;;;;;11.55;5.95;;;;;;;;;;4969033;28;20405;-74
2022/01/02 12:28:28;;;;;;;9.88;5.47;;;;;;;;;;4969107;28;20432;-74
2022/01/02 12:30:56;;;;;;;8.10;5.05;;;;;;;;;;4969109;28;20444;-74
2022/01/02 12:33:30;;;;;;;12.25;6.68;;;;;;;;;;4970089;28;20380;-74
2022/01/02 12:35:56;;;;;;;10.48;5.90;;;;;;;;;;4968988;28;20376;-74
2022/01/02 12:38:22;;;;;;;12.73;5.82;;;;;;;;;;4970055;28;20405;-75
2022/01/02 12:40:49;;;;;;;10.40;5.03;;;;;;;;;;4968514;28;20534;-74
2022/01/02 12:43:22;;;;;;;8.27;5.05;;;;;;;;;;4969245;28;20344;-74
2022/01/02 12:45:53;;;;;;;8.40;5.03;;;;;;;;;;4951372;28;20372;-74
2022/01/02 12:48:33;;;;;;;10.55;4.63;;;;;;;;;;4951400;28;20396;-74
2022/01/02 12:51:19;;;;;;;8.77;4.72;;;;;;;;;;4951342;28;20107;-74
2022/01/02 12:53:58;;;;;;;8.52;4.93;;;;;;;;;;4968856;28;20352;-74
2022/01/02 12:56:56;;;;;;;9.88;6.10;;;;;;;;;;4949285;28;20410;-74
2022/01/02 12:59:28;;;;;;;10.95;5.38;;;;;;;;;;4890135;28;20373;-74
2022/01/02 13:02:04;;;;;;;10.07;4.80;;;;;;;;;;4949525;28;20438;-74
2022/01/02 13:04:41;;;;;;;11.52;5.57;;;;;;;;;;4931819;28;20425;-74
2022/01/02 13:07:19;;;;;;;8.65;4.50;;;;;;;;;;4931743;28;20030;-74
2022/01/02 13:09:49;;;;;;;10.05;5.55;;;;;;;;;;4933131;28;20411;-74
2022/01/02 13:12:15;;;;;;;8.63;4.45;;;;;;;;;;4949633;28;20383;-74
2022/01/02 13:14:45;;;;;;;8.43;4.40;;;;;;;;;;4931896;28;20034;-74
2022/01/02 13:17:21;;;;;;;9.50;5.03;;;;;;;;;;4949964;28;20402;-74
2022/01/02 13:20:10;;;;;;;9.43;5.05;;;;;;;;;;4949747;28;20096;-74
2022/01/02 13:22:41;;;;;;;8.82;4.93;;;;;;;;;;4919942;28;20449;-74
2022/01/02 13:25:12;;;;;;;10.68;4.32;;;;;;;;;;4931754;28;20345;-74
2022/01/02 13:27:53;;;;;;;8.73;4.43;;;;;;;;;;4931538;28;20460;-74
2022/01/02 13:30:21;;;;;;;8.07;4.57;;;;;;;;;;4949423;28;20415;-74
2022/01/02 13:32:47;;;;;;;10.27;5.07;;;;;;;;;;4932170;28;20346;-73
2022/01/02 13:35:18;;;;;;;10.93;5.55;;;;;;;;;;4949918;28;20413;-74
2022/01/02 13:37:45;;;;;;;8.13;5.07;;;;;;;;;;4935163;28;20437;-73
2022/01/02 13:40:31;;;;;;;8.68;4.90;;;;;;;;;;4934899;28;20433;-74
2022/01/02 13:43:06;;;;;;;8.20;4.57;;;;;;;;;;4952418;28;20525;-73
2022/01/02 13:45:33;;;;;;;10.05;5.38;;;;;;;;;;4934952;28;20026;-74
2022/01/02 13:48:29;;;;;;;8.30;4.40;;;;;;;;;;4952512;28;20378;-74
2022/01/02 13:50:59;;;;;;;9.15;4.60;;;;;;;;;;4918335;28;20516;-73
2022/01/02 13:53:25;;;;;;;9.30;4.95;;;;;;;;;;4953416;28;20048;-74
2022/01/02 13:56:06;;;;;;;7.97;4.53;;;;;;;;;;4967992;28;20046;-73
2022/01/02 13:58:33;;;;;;;11.80;5.22;;;;;;;;;;4972295;28;20518;-74
2022/01/02 14:01:04;;;;;;;10.60;5.47;;;;;;;;;;4954102;28;20029;-73
2022/01/02 14:03:35;;;;;;;11.38;4.90;;;;;;;;;;4953837;28;20447;-74
2022/01/02 14:06:12;;;;;;;10.48;4.38;;;;;;;;;;4954074;28;20344;-73
2022/01/02 14:08:44;;;;;;;10.25;4.75;;;;;;;;;;4953885;28;20056;-74
2022/01/02 14:11:09;;;;;;;8.38;4.40;;;;;;;;;;4971951;28;20524;-73
2022/01/02 14:13:36;;;;;;;7.07;4.20;;;;;;;;;;4954043;28;20348;-74
2022/01/02 14:16:02;;;;;;;8.45;5.35;;;;;;;;;;4971631;28;20316;-74
2022/01/02 14:18:29;;;;;;;9.15;4.43;;;;;;;;;;4953861;28;20083;-74
2022/01/02 14:21:00;;;;;;;10.18;4.60;;;;;;;;;;4953328;28;20364;-74
2022/01/02 14:23:27;;;;;;;8.02;4.50;;;;;;;;;;4972664;28;20368;-73
2022/01/02 14:25:52;;;;;;;8.75;4.32;;;;;;;;;;4971976;28;20480;-73
2022/01/02 14:28:18;;;;;;;8.18;4.45;;;;;;;;;;4971384;28;20451;-73
2022/01/02 14:30:43;;;;;;;7.20;4.28;;;;;;;;;;4971542;28;20033;-74
2022/01/02 14:33:08;;;;;;;9.82;4.28;;;;;;;;;;4953512;28;20419;-73
2022/01/02 14:35:35;;;;;;;8.55;4.05;;;;;;;;;;4970986;28;20553;-73
2022/01/02 14:38:00;;;;;;;7.57;4.50;;;;;;;;;;4953707;28;20333;-73
2022/01/02 14:40:26;;;;;;;12.10;4.88;;;;;;;;;;4953438;28;20422;-74
2022/01/02 14:42:51;;;;;;;9.48;5.03;;;;;;;;;;4970898;28;20171;-73
2022/01/02 14:45:16;;;;;;;11.50;4.72;;;;;;;;;;4953280;28;20451;-74
2022/01/02 14:47:42;;;;;;;10.85;5.05;;;;;;;;;;4952867;28;20528;-73
2022/01/02 14:50:11;;;;;;;9.73;4.75;;;;;;;;;;4950638;28;20368;-73
2022/01/02 14:52:37;;;;;;;;;;;;;;;;;;4971524;28;20348;-74